Time;durP1;ratioP1;P1;durP2;ratioP2;P2;SDS_P1;SDS_P2;PMS_P1;PMS_P2;Temp;Humidity;BMP_temperature;BMP_pressure;BME280_temperature;BME280_humidity;BME280_pressure;Samples;Min_cycle;Max_cycle;Signal;HPM_P1;HPM_P2
2022/11/24 00:04:26;;;;;;;3.23;1.30;;;;;;;17.56;61.01;96064.00;10443902;28;20033;-29
2022/11/24 00:09:26;;;;;;;1.80;0.90;;;;;;;17.43;62.00;96057.31;10437748;28;20033;-30
2022/11/24 00:14:27;;;;;;;1.27;0.85;;;;;;;17.59;61.73;96079.13;10437487;28;20033;-30
2022/11/24 00:19:27;;;;;;;1.70;0.80;;;;;;;17.56;61.46;96077.47;10439237;28;20055;-30
2022/11/24 00:24:28;;;;;;;2.10;1.10;;;;;;;17.52;61.03;96092.69;10439754;28;20819;-30
2022/11/24 00:29:28;;;;;;;0.70;0.60;;;;;;;17.50;61.16;96069.91;10445441;28;20491;-30
2022/11/24 00:34:28;;;;;;;2.40;0.97;;;;;;;17.53;61.35;96101.94;10439461;28;20032;-30
2022/11/24 00:39:29;;;;;;;4.53;0.90;;;;;;;17.52;61.13;96095.22;10435991;28;20026;-30
2022/11/24 00:44:29;;;;;;;1.70;1.07;;;;;;;17.53;61.02;96099.41;10441057;28;20025;-30
2022/11/24 00:49:29;;;;;;;2.73;1.17;;;;;;;17.50;60.90;96112.09;10441010;28;20033;-30
2022/11/24 00:54:30;;;;;;;2.40;1.07;;;;;;;17.51;60.93;96109.53;10437459;28;20029;-30
2022/11/24 00:59:31;;;;;;;1.63;0.93;;;;;;;17.50;61.18;96125.56;10440424;28;20122;-30
2022/11/24 01:04:32;;;;;;;3.97;0.90;;;;;;;17.50;60.92;96132.34;10440207;28;20490;-31
2022/11/24 01:09:32;;;;;;;1.48;0.70;;;;;;;17.44;61.42;96120.56;10436084;28;20056;-30
2022/11/24 01:14:33;;;;;;;1.97;1.10;;;;;;;17.50;61.52;96125.56;10437370;28;20033;-30
2022/11/24 01:19:33;;;;;;;2.05;0.93;;;;;;;17.58;61.44;96141.56;10440205;28;20063;-30
2022/11/24 01:24:34;;;;;;;2.57;0.80;;;;;;;17.59;61.32;96135.66;10437320;28;20040;-30
2022/11/24 01:29:34;;;;;;;2.57;0.80;;;;;;;17.56;61.42;96144.97;10441782;28;20106;-30
2022/11/24 01:34:34;;;;;;;0.87;0.63;;;;;;;17.53;61.45;96145.81;10436769;28;20029;-30
2022/11/24 01:39:35;;;;;;;1.40;0.90;;;;;;;17.51;61.28;96149.22;10426055;28;20056;-30
2022/11/24 01:44:35;;;;;;;3.03;1.07;;;;;;;17.50;61.10;96152.59;10430106;28;20044;-31
2022/11/24 01:49:53;;;;;;;3.70;1.00;;;;;;;17.49;61.43;96153.44;10437830;28;20037;-30
2022/11/24 01:54:57;;;;;;;3.47;0.88;;;;;;;17.49;61.17;96158.50;10431645;28;20107;-30
2022/11/24 02:00:05;;;;;;;1.80;0.73;;;;;;;17.49;61.33;96164.38;10436330;28;20040;-31
2022/11/24 02:05:27;;;;;;;0.90;0.65;;;;;;;17.48;61.22;96156.81;10435315;28;20435;-30
2022/11/24 02:10:28;;;;;;;2.25;0.77;;;;;;;17.48;61.35;96172.84;10432267;28;20041;-30
2022/11/24 02:15:29;;;;;;;2.03;1.05;;;;;;;17.48;61.25;96172.00;10438881;28;20052;-30
2022/11/24 02:20:30;;;;;;;1.15;0.70;;;;;;;17.46;61.34;96173.69;10433552;28;20035;-30
2022/11/24 02:25:49;;;;;;;3.25;0.90;;;;;;;17.53;61.41;96165.22;10434077;28;20381;-30
2022/11/24 02:30:51;;;;;;;2.75;0.80;;;;;;;17.57;61.39;96146.66;10434449;28;20033;-31
2022/11/24 02:35:52;;;;;;;1.83;1.10;;;;;;;17.58;61.66;96148.31;10435899;28;20028;-30
2022/11/24 02:40:53;;;;;;;2.40;1.00;;;;;;;17.56;61.31;96147.50;10433518;28;20395;-31
2022/11/24 02:45:53;;;;;;;2.10;0.70;;;;;;;17.51;61.26;96141.63;10436667;28;20274;-30
2022/11/24 02:50:53;;;;;;;2.63;1.17;;;;;;;17.46;61.40;96139.13;10436097;28;20243;-30
2022/11/24 02:55:54;;;;;;;1.17;0.67;;;;;;;17.44;61.44;96145.03;10436740;28;20454;-30
2022/11/24 03:00:56;;;;;;;2.77;0.70;;;;;;;17.43;61.15;96140.81;10434956;28;20025;-30
2022/11/24 03:05:56;;;;;;;1.80;0.73;;;;;;;17.45;61.25;96162.75;10431977;28;20033;-30
2022/11/24 03:10:56;;;;;;;1.67;1.07;;;;;;;17.44;61.31;96155.13;10432274;28;20081;-31
2022/11/24 03:15:57;;;;;;;2.23;0.90;;;;;;;17.47;61.14;96175.34;10426676;28;20303;-30
2022/11/24 03:21:00;;;;;;;2.33;0.90;;;;;;;17.45;61.23;96177.06;10437630;28;20497;-30
2022/11/24 03:26:09;;;;;;;1.33;0.65;;;;;;;17.45;60.98;96197.31;10433756;28;20295;-30
2022/11/24 03:31:10;;;;;;;6.20;1.15;;;;;;;17.44;61.21;96205.75;10430086;28;20491;-30
2022/11/24 03:36:10;;;;;;;1.27;0.80;;;;;;;17.44;61.15;96198.16;10441479;28;20468;-30
2022/11/24 03:41:11;;;;;;;1.40;0.70;;;;;;;17.57;61.17;96200.63;10439854;28;20132;-30
2022/11/24 03:46:11;;;;;;;0.98;0.52;;;;;;;17.60;60.87;96197.25;10436554;28;20768;-30
2022/11/24 03:51:12;;;;;;;1.88;1.40;;;;;;;17.55;61.56;96193.88;10441595;28;20033;-30
2022/11/24 03:56:13;;;;;;;2.47;2.20;;;;;;;17.51;61.32;96202.34;10440158;28;20114;-30
2022/11/24 04:01:13;;;;;;;1.77;0.82;;;;;;;17.48;61.50;96192.25;10439139;28;20788;-30
2022/11/24 04:06:14;;;;;;;1.53;0.77;;;;;;;17.47;61.03;96204.06;10436548;28;20043;-30
2022/11/24 04:12:42;;;;;;;1.27;0.83;;;;;;;17.46;61.05;96214.16;10438323;28;20090;-30
2022/11/24 04:16:35;;;;;;;3.03;1.05;;;;;;;17.45;61.42;96215.03;10442770;28;20052;-31
2022/11/24 04:21:36;;;;;;;1.30;0.65;;;;;;;17.44;61.33;96220.94;10441053;28;20132;-30
2022/11/24 04:26:36;;;;;;;1.10;0.80;;;;;;;17.45;61.21;96220.09;10437223;28;20048;-30
2022/11/24 04:31:36;;;;;;;1.47;0.70;;;;;;;17.44;61.24;96231.06;10445187;28;20021;-31
2022/11/24 04:36:39;;;;;;;1.33;0.60;;;;;;;17.46;61.17;96239.47;10438077;28;20292;-30
2022/11/24 04:41:40;;;;;;;2.67;0.60;;;;;;;17.44;61.34;96231.06;10439876;28;20025;-30
2022/11/24 04:46:40;;;;;;;0.90;0.60;;;;;;;17.52;61.24;96225.13;10439773;28;20028;-30
2022/11/24 04:51:41;;;;;;;1.53;0.90;;;;;;;17.55;61.39;96217.50;10435275;28;20025;-30
2022/11/24 04:56:42;;;;;;;3.50;1.00;;;;;;;17.58;62.25;96224.25;10442146;28;20021;-30
2022/11/24 05:01:44;;;;;;;1.98;0.50;;;;;;;17.63;61.15;96237.72;10433035;28;20086;-30
2022/11/24 05:06:44;;;;;;;2.80;1.00;;;;;;;17.64;61.21;96239.41;10433197;28;20060;-30
2022/11/24 05:11:45;;;;;;;0.73;0.50;;;;;;;17.66;60.86;96237.72;10438854;28;20487;-30
2022/11/24 05:16:45;;;;;;;3.63;0.63;;;;;;;17.66;61.08;96253.75;10434554;28;20025;-30
2022/11/24 05:21:46;;;;;;;1.97;0.67;;;;;;;17.69;61.06;96252.88;10439239;28;20411;-30
2022/11/24 05:26:46;;;;;;;1.60;0.90;;;;;;;17.74;61.05;96252.00;10428623;28;20284;-30
2022/11/24 05:31:46;;;;;;;2.50;0.80;;;;;;;17.72;61.31;96245.28;10439396;28;20033;-30
2022/11/24 05:37:01;;;;;;;5.50;0.80;;;;;;;17.67;61.34;96239.41;10433721;28;20029;-31
2022/11/24 05:42:39;;;;;;;3.83;0.95;;;;;;;17.71;61.12;96251.19;10441247;28;20037;-30
2022/11/24 05:47:24;;;;;;;3.90;1.02;;;;;;;17.70;61.39;96254.56;10437409;28;20507;-30
2022/11/24 05:52:25;;;;;;;1.75;0.77;;;;;;;17.74;61.13;96261.31;10430320;28;20037;-30
2022/11/24 05:57:25;;;;;;;4.20;1.20;;;;;;;17.70;59.92;96263.03;10436844;28;20032;-29
2022/11/24 06:02:25;;;;;;;1.93;0.80;;;;;;;17.73;60.49;96260.47;10424827;28;20291;-30
2022/11/24 06:07:26;;;;;;;3.37;0.90;;;;;;;17.76;61.28;96264.69;10422650;28;20660;-30
2022/11/24 06:12:26;;;;;;;2.85;0.65;;;;;;;17.77;60.87;96272.28;10432956;28;20263;-30
2022/11/24 06:17:27;;;;;;;3.00;1.10;;;;;;;17.76;60.56;96264.69;10426433;28;20028;-31
2022/11/24 06:22:28;;;;;;;5.22;1.10;;;;;;;17.76;60.52;96262.97;10439496;28;20094;-31
2022/11/24 06:27:28;;;;;;;8.73;2.45;;;;;;;17.76;59.93;96262.16;10431046;28;20043;-30
2022/11/24 06:32:28;;;;;;;8.13;1.93;;;;;;;17.66;58.69;96270.63;10430610;28;20036;-30
2022/11/24 06:37:29;;;;;;;11.27;3.40;;;;;;;17.45;58.96;96258.03;10433807;28;20032;-30
2022/11/24 06:42:29;;;;;;;11.27;3.35;;;;;;;17.60;59.50;96268.13;10430923;28;20032;-30
2022/11/24 06:47:30;;;;;;;9.43;3.43;;;;;;;17.61;60.36;96279.91;10436129;28;20174;-29
2022/11/24 06:52:30;;;;;;;8.13;2.90;;;;;;;17.62;60.85;96281.59;10427852;28;20036;-30
2022/11/24 06:57:31;;;;;;;8.00;2.83;;;;;;;17.61;60.95;96285.84;10436095;28;20268;-30
2022/11/24 07:02:31;;;;;;;5.57;2.50;;;;;;;17.61;61.05;96301.03;10437310;28;20565;-31
2022/11/24 07:07:32;;;;;;;10.75;2.58;;;;;;;17.62;60.92;96317.03;10436925;28;20043;-30
2022/11/24 07:12:34;;;;;;;6.63;2.10;;;;;;;17.65;61.35;96322.13;10432362;28;20039;-30
2022/11/24 07:17:36;;;;;;;10.02;2.67;;;;;;;17.71;61.33;96332.19;10417547;28;20279;-30
2022/11/24 07:22:37;;;;;;;7.60;3.88;;;;;;;17.63;58.90;96332.22;10440366;28;20040;-35
2022/11/24 07:27:37;;;;;;;7.47;1.90;;;;;;;17.55;59.51;96333.09;10439655;28;20502;-30
2022/11/24 07:32:37;;;;;;;6.57;2.17;;;;;;;17.53;59.82;96347.44;10435748;28;20450;-30
2022/11/24 07:37:38;;;;;;;4.10;1.63;;;;;;;17.51;59.83;96344.91;10442211;28;20035;-30
2022/11/24 07:42:38;;;;;;;8.17;1.97;;;;;;;17.48;60.03;96361.81;10440996;28;20032;-31
2022/11/24 07:47:39;;;;;;;6.00;2.00;;;;;;;17.46;59.94;96366.00;10445146;28;20043;-30
2022/11/24 07:52:39;;;;;;;5.35;2.53;;;;;;;17.44;59.85;96362.66;10434650;28;20288;-29
2022/11/24 07:57:40;;;;;;;5.20;1.70;;;;;;;17.42;60.15;96366.88;10443395;28;20055;-34
2022/11/24 08:02:40;;;;;;;4.45;1.77;;;;;;;17.42;60.07;96379.53;10435791;28;20033;-31
2022/11/24 08:07:41;;;;;;;3.93;1.80;;;;;;;17.42;60.18;96379.53;10440436;28;20028;-30
2022/11/24 08:12:41;;;;;;;4.03;2.03;;;;;;;17.41;60.14;96382.91;10440701;28;20653;-30
2022/11/24 08:17:42;;;;;;;6.43;2.07;;;;;;;17.39;60.32;96384.56;10434621;28;20303;-30
2022/11/24 08:22:42;;;;;;;5.27;1.63;;;;;;;17.46;60.19;96398.91;10441611;28;20036;-30
2022/11/24 08:27:42;;;;;;;4.20;1.70;;;;;;;17.52;59.90;96391.31;10439200;28;20035;-32
2022/11/24 08:32:43;;;;;;;3.90;2.03;;;;;;;17.51;59.74;96399.75;10435333;28;20049;-30
2022/11/24 08:37:43;;;;;;;3.83;1.67;;;;;;;17.47;60.14;96408.19;10439746;28;20533;-30
2022/11/24 08:42:44;;;;;;;5.83;2.23;;;;;;;17.44;60.21;96410.72;10436686;28;20626;-30
2022/11/24 08:47:44;;;;;;;2.95;1.40;;;;;;;17.43;60.32;96409.03;10443279;28;20604;-31
2022/11/24 08:52:44;;;;;;;4.80;1.73;;;;;;;17.41;60.38;96418.34;10434412;28;20033;-31
2022/11/24 08:57:45;;;;;;;3.40;1.60;;;;;;;17.39;60.26;96420.84;10439499;28;20044;-30
2022/11/24 09:02:51;;;;;;;5.45;1.70;;;;;;;17.34;60.13;96416.59;10441062;28;20215;-30
2022/11/24 09:07:52;;;;;;;;;;;;;;;17.39;60.34;96440.25;10438685;28;20037;-30
2022/11/24 09:12:52;;;;;;;2.92;1.48;;;;;;;17.36;60.61;96450.38;10437435;28;19917;-31
2022/11/24 09:17:52;;;;;;;3.03;1.70;;;;;;;17.37;60.51;96457.13;10434832;28;20032;-30
2022/11/24 09:22:54;;;;;;;4.00;1.70;;;;;;;17.33;60.49;96460.47;10438904;28;20032;-30
2022/11/24 09:27:56;;;;;;;3.42;1.50;;;;;;;17.37;60.38;96467.25;10435976;28;20280;-30
2022/11/24 09:32:56;;;;;;;2.58;1.70;;;;;;;17.39;60.22;96475.66;10438674;28;20033;-30
2022/11/24 09:37:57;;;;;;;2.90;1.50;;;;;;;17.48;60.14;96483.28;10435617;28;20389;-30
2022/11/24 09:43:13;;;;;;;4.00;1.50;;;;;;;17.48;60.04;96486.66;10441566;28;20091;-30
2022/11/24 09:48:25;;;;;;;3.20;1.38;;;;;;;17.41;60.06;96484.94;10438198;28;20555;-30
2022/11/24 09:53:37;;;;;;;2.33;1.20;;;;;;;17.41;60.41;96504.38;10428652;28;20109;-31
2022/11/24 09:58:40;;;;;;;3.53;1.77;;;;;;;17.39;60.46;96506.03;10436790;28;20032;-30
2022/11/24 10:03:42;;;;;;;2.38;1.60;;;;;;;17.39;60.40;96506.88;10430597;28;20036;-31
2022/11/24 10:09:05;;;;;;;3.35;1.80;;;;;;;17.37;60.28;96508.59;10430206;28;20025;-30
2022/11/24 10:14:16;;;;;;;3.38;1.85;;;;;;;17.37;60.34;96506.06;10433115;28;20142;-30
2022/11/24 10:19:45;;;;;;;2.50;1.30;;;;;;;17.36;60.65;96511.09;10427828;28;20116;-30
2022/11/24 10:25:12;;;;;;;2.00;1.50;;;;;;;17.37;60.90;96502.66;10433323;28;20142;-30
2022/11/24 10:30:19;;;;;;;2.37;1.20;;;;;;;17.37;60.30;96515.31;10438987;28;20048;-29
2022/11/24 10:35:25;;;;;;;2.08;1.20;;;;;;;17.37;60.50;96517.84;10430362;28;20287;-31
2022/11/24 10:40:39;;;;;;;3.13;1.07;;;;;;;17.34;60.47;96522.88;10430749;28;20200;-30
2022/11/24 10:45:39;;;;;;;4.38;1.85;;;;;;;17.39;60.08;96526.28;10429249;28;20491;-30
2022/11/24 10:50:41;;;;;;;2.37;1.50;;;;;;;17.46;60.20;96517.84;10434306;28;20029;-30
2022/11/24 10:55:53;;;;;;;1.80;1.05;;;;;;;17.49;59.80;96525.47;10432618;28;20371;-30
2022/11/24 11:00:55;;;;;;;2.38;1.35;;;;;;;17.46;60.08;96522.91;10425686;28;20051;-31
2022/11/24 11:05:59;;;;;;;2.20;1.30;;;;;;;17.39;60.27;96521.22;10430088;28;20488;-30
2022/11/24 11:11:28;;;;;;;3.40;1.50;;;;;;;17.42;59.96;96517.00;10434404;28;20045;-30
2022/11/24 11:16:32;;;;;;;2.60;1.30;;;;;;;17.45;59.81;96516.16;10431181;28;20489;-30
2022/11/24 11:21:36;;;;;;;1.80;1.13;;;;;;;17.47;59.65;96527.13;10436307;28;20040;-30
2022/11/24 11:26:38;;;;;;;3.13;1.40;;;;;;;17.44;58.81;96527.13;10432175;28;20414;-31
2022/11/24 11:31:39;;;;;;;3.72;1.70;;;;;;;17.49;59.16;96531.34;10436172;28;20047;-31
2022/11/24 11:36:44;;;;;;;3.00;1.50;;;;;;;17.53;59.79;96532.19;10427088;28;20049;-30
2022/11/24 11:41:48;;;;;;;5.07;1.70;;;;;;;17.54;60.06;96541.47;10433431;28;20430;-30
2022/11/24 11:46:48;;;;;;;3.60;1.50;;;;;;;17.55;59.86;96533.03;10432508;28;20470;-30
2022/11/24 11:52:04;;;;;;;4.73;1.57;;;;;;;17.43;60.78;96528.84;10432149;28;20091;-30
2022/11/24 11:57:34;;;;;;;4.25;2.00;;;;;;;17.48;60.74;96542.31;10443407;28;20283;-30
2022/11/24 12:02:59;;;;;;;32.60;4.05;;;;;;;17.55;60.72;96549.09;10432030;28;20492;-30
2022/11/24 12:08:21;;;;;;;17.60;2.88;;;;;;;17.64;60.44;96553.28;10436663;28;20048;-30
2022/11/24 12:13:46;;;;;;;14.02;3.08;;;;;;;17.63;60.18;96544.00;10438618;28;20823;-30
2022/11/24 12:19:10;;;;;;;9.35;1.80;;;;;;;17.51;60.41;96523.78;10427984;28;20034;-31
2022/11/24 12:24:20;;;;;;;9.10;1.92;;;;;;;17.62;60.49;96555.84;10442904;28;20091;-30
2022/11/24 12:29:29;;;;;;;8.88;2.88;;;;;;;17.62;60.22;96555.00;10443236;28;20111;-30
2022/11/24 12:35:01;;;;;;;5.07;1.95;;;;;;;17.63;60.34;96552.47;10441625;28;20339;-31
2022/11/24 12:40:27;;;;;;;7.38;1.77;;;;;;;17.63;60.18;96555.00;10419654;28;20079;-30
2022/11/24 12:45:39;;;;;;;4.38;1.98;;;;;;;17.61;60.53;96545.72;10439272;28;20028;-29
2022/11/24 12:50:42;;;;;;;7.47;2.20;;;;;;;17.61;60.75;96544.03;10435578;28;20061;-30
2022/11/24 12:55:43;;;;;;;4.28;1.80;;;;;;;17.61;61.01;96536.44;10432924;28;20601;-30
2022/11/24 13:00:54;;;;;;;4.68;2.15;;;;;;;17.63;60.64;96532.22;10436712;28;20079;-30
2022/11/24 13:06:10;;;;;;;5.03;1.60;;;;;;;17.65;60.78;96529.69;10440205;28;20072;-30
2022/11/24 13:11:22;;;;;;;8.63;2.35;;;;;;;17.69;61.25;96528.84;10427264;28;20384;-30
2022/11/24 13:16:23;;;;;;;3.55;2.28;;;;;;;17.70;60.94;96528.84;10448205;28;20037;-31
2022/11/24 13:21:26;;;;;;;6.38;1.88;;;;;;;17.71;60.79;96535.59;10447863;28;20032;-30
2022/11/24 13:26:42;;;;;;;5.78;2.20;;;;;;;17.59;62.13;96534.75;10447534;28;20082;-32
2022/11/24 13:31:42;;;;;;;4.25;1.90;;;;;;;17.64;60.91;96527.97;10441680;28;20043;-31
2022/11/24 13:36:52;;;;;;;5.77;3.07;;;;;;;17.65;61.05;96535.59;10436378;28;20407;-30
2022/11/24 13:41:52;;;;;;;9.85;3.88;;;;;;;17.65;60.81;96524.63;10437807;28;20066;-31
2022/11/24 13:47:00;;;;;;;7.40;2.70;;;;;;;17.63;61.22;96536.41;10436470;28;20155;-30
2022/11/24 13:52:38;;;;;;;6.38;2.50;;;;;;;17.60;61.55;96528.84;10432805;28;20029;-31
2022/11/24 13:57:40;;;;;;;6.03;2.35;;;;;;;17.59;61.40;96529.69;10437941;28;20030;-31
2022/11/24 14:02:42;;;;;;;5.32;2.22;;;;;;;17.57;61.26;96531.38;10429157;28;20203;-30
2022/11/24 14:07:50;;;;;;;4.43;2.28;;;;;;;17.58;61.69;96538.13;10433306;28;20052;-31
2022/11/24 14:13:25;;;;;;;6.97;2.63;;;;;;;17.54;61.94;96536.41;10436161;28;20057;-29
2022/11/24 14:18:27;;;;;;;5.30;2.08;;;;;;;17.55;61.39;96538.09;10430773;28;20117;-30
2022/11/24 14:23:28;;;;;;;7.55;2.47;;;;;;;17.59;61.00;96527.16;10437576;28;20037;-30
2022/11/24 14:28:28;;;;;;;3.45;1.58;;;;;;;17.63;60.96;96534.75;10439722;28;20407;-32
2022/11/24 14:33:29;;;;;;;5.18;1.70;;;;;;;17.63;60.63;96518.69;10436986;28;20111;-30
2022/11/24 14:38:29;;;;;;;5.00;1.73;;;;;;;17.60;61.48;96521.25;10433726;28;20037;-30
2022/11/24 14:43:31;;;;;;;3.03;1.77;;;;;;;17.52;61.86;96517.88;10438943;28;20083;-30
2022/11/24 14:48:36;;;;;;;3.22;2.05;;;;;;;17.50;61.93;96510.25;10433912;28;20070;-30
2022/11/24 14:53:40;;;;;;;2.08;1.27;;;;;;;17.48;62.09;96513.66;10426689;28;20051;-29
2022/11/24 14:58:41;;;;;;;2.13;1.42;;;;;;;17.48;62.14;96506.91;10434712;28;20036;-29
2022/11/24 15:03:41;;;;;;;3.93;1.83;;;;;;;17.48;61.75;96506.06;10436494;28;20052;-27
2022/11/24 15:08:45;;;;;;;4.93;1.60;;;;;;;17.46;61.82;96502.66;10425656;28;20051;-29
2022/11/24 15:13:53;;;;;;;5.25;1.65;;;;;;;17.48;61.61;96493.41;10433431;28;20196;-28
2022/11/24 15:19:00;;;;;;;3.28;1.33;;;;;;;17.45;62.02;96485.81;10434339;28;20047;-28
2022/11/24 15:24:15;;;;;;;3.88;1.33;;;;;;;17.46;61.97;96482.41;10433741;28;20128;-28
2022/11/24 15:29:16;;;;;;;2.47;1.48;;;;;;;17.40;62.11;96472.31;10445221;28;20094;-28
2022/11/24 15:34:16;;;;;;;4.13;1.83;;;;;;;17.49;61.37;96490.03;10442191;28;20036;-29
2022/11/24 15:39:16;;;;;;;3.53;1.40;;;;;;;17.53;61.38;96486.66;10439223;28;20025;-27
2022/11/24 15:44:17;;;;;;;2.27;1.43;;;;;;;17.59;60.99;96499.31;10443874;28;20025;-28
2022/11/24 15:49:17;;;;;;;3.17;1.57;;;;;;;17.57;61.11;96501.81;10436553;28;20025;-28
2022/11/24 15:54:18;;;;;;;2.93;0.93;;;;;;;17.52;61.19;96498.47;10440825;28;20021;-28
2022/11/24 15:59:18;;;;;;;2.70;1.75;;;;;;;17.54;61.26;96508.56;10440503;28;20037;-28
2022/11/24 16:04:19;;;;;;;2.03;1.30;;;;;;;17.49;61.49;96517.88;10448552;28;20029;-27
2022/11/24 16:09:19;;;;;;;2.37;1.40;;;;;;;17.49;61.52;96522.94;10438697;28;20029;-28
2022/11/24 16:14:19;;;;;;;3.37;1.47;;;;;;;17.48;61.47;96516.19;10437788;28;20032;-28
2022/11/24 16:19:20;;;;;;;3.57;1.30;;;;;;;17.44;61.35;96517.88;10444810;28;20761;-28
2022/11/24 16:24:20;;;;;;;2.67;1.40;;;;;;;17.46;61.62;96528.84;10438844;28;20510;-28
2022/11/24 16:29:22;;;;;;;2.87;1.50;;;;;;;17.46;61.41;96525.44;10443101;28;20033;-28
2022/11/24 16:34:23;;;;;;;3.17;1.35;;;;;;;17.50;61.27;96539.81;10438211;28;20037;-28
2022/11/24 16:39:23;;;;;;;1.77;1.05;;;;;;;17.49;61.39;96543.19;10434039;28;20037;-28
2022/11/24 16:44:23;;;;;;;6.33;1.37;;;;;;;17.52;60.44;96540.66;10440749;28;20033;-28
2022/11/24 16:49:24;;;;;;;1.60;1.07;;;;;;;17.60;60.26;96529.69;10432220;28;20484;-28
2022/11/24 16:54:24;;;;;;;1.55;1.10;;;;;;;17.61;60.45;96528.84;10434577;28;20287;-27
2022/11/24 16:59:25;;;;;;;4.03;1.27;;;;;;;17.63;60.73;96551.63;10434586;28;20095;-28
2022/11/24 17:04:25;;;;;;;1.97;1.13;;;;;;;17.60;60.21;96552.47;10423402;28;20036;-28
2022/11/24 17:09:25;;;;;;;5.50;1.47;;;;;;;17.59;61.08;96552.47;10432696;28;20033;-29
2022/11/24 17:14:26;;;;;;;4.07;1.23;;;;;;;17.58;61.04;96548.25;10430723;28;20037;-30
2022/11/24 17:19:27;;;;;;;2.57;1.00;;;;;;;17.56;61.42;96539.81;10437077;28;20020;-28
2022/11/24 17:24:27;;;;;;;3.38;1.17;;;;;;;17.54;61.37;96541.47;10436830;28;20287;-28
2022/11/24 17:29:28;;;;;;;3.00;1.50;;;;;;;17.55;61.36;96535.56;10442897;28;20039;-28
2022/11/24 17:34:29;;;;;;;4.95;1.35;;;;;;;17.54;60.84;96534.75;10437899;28;20032;-29
2022/11/24 17:39:29;;;;;;;4.33;1.27;;;;;;;17.49;61.54;96528.81;10435916;28;20025;-28
2022/11/24 17:44:30;;;;;;;4.27;1.47;;;;;;;17.51;61.68;96537.25;10439843;28;20314;-28
2022/11/24 17:49:31;;;;;;;2.95;1.25;;;;;;;17.51;61.29;96531.38;10437904;28;20040;-29
2022/11/24 17:54:31;;;;;;;3.42;1.50;;;;;;;17.51;61.08;96523.78;10434868;28;20087;-30
2022/11/24 17:59:31;;;;;;;4.97;1.33;;;;;;;17.54;61.12;96526.28;10436774;28;20066;-28
2022/11/24 18:04:33;;;;;;;4.00;1.37;;;;;;;17.56;61.12;96511.97;10435922;28;20329;-28
2022/11/24 18:09:33;;;;;;;5.75;1.25;;;;;;;17.67;60.61;96517.88;10433075;28;20043;-28
2022/11/24 18:14:34;;;;;;;5.10;1.70;;;;;;;17.60;61.24;96527.16;10434530;28;20036;-28
2022/11/24 18:19:34;;;;;;;2.97;1.50;;;;;;;17.63;61.75;96516.16;10433752;28;20029;-28
2022/11/24 18:24:34;;;;;;;3.27;1.53;;;;;;;17.61;61.94;96523.78;10433873;28;20295;-28
2022/11/24 18:29:35;;;;;;;6.67;2.27;;;;;;;17.57;61.89;96526.31;10431000;28;20036;-28
2022/11/24 18:34:36;;;;;;;3.90;1.43;;;;;;;17.56;61.48;96519.56;10434712;28;20525;-28
2022/11/24 18:39:40;;;;;;;3.63;1.52;;;;;;;17.50;61.45;96529.69;10431498;28;20403;-28
2022/11/24 18:44:41;;;;;;;5.30;1.80;;;;;;;17.49;61.36;96525.47;10430711;28;20044;-28
2022/11/24 18:49:42;;;;;;;4.93;1.65;;;;;;;17.46;61.39;96533.03;10427786;28;20025;-30
2022/11/24 18:54:42;;;;;;;2.47;1.38;;;;;;;17.48;61.28;96523.78;10432552;28;20036;-27
2022/11/24 18:59:42;;;;;;;3.60;1.80;;;;;;;17.55;60.82;96517.84;10434306;28;20116;-29
2022/11/24 19:04:43;;;;;;;4.90;1.40;;;;;;;17.55;60.65;96511.13;10430532;28;20287;-28
2022/11/24 19:09:43;;;;;;;4.33;1.57;;;;;;;17.58;60.10;96520.41;10435287;28;20777;-28
2022/11/24 19:14:43;;;;;;;4.07;1.53;;;;;;;17.58;59.64;96503.50;10426410;28;20174;-28
2022/11/24 19:19:44;;;;;;;4.47;1.33;;;;;;;17.65;60.08;96504.38;10436563;28;20521;-28
2022/11/24 19:24:45;;;;;;;3.60;1.37;;;;;;;17.63;59.39;96506.91;10433216;28;20279;-28
2022/11/24 19:29:46;;;;;;;4.78;1.65;;;;;;;17.58;59.88;96505.22;10429506;28;20350;-28
2022/11/24 19:34:47;;;;;;;5.07;1.58;;;;;;;17.53;60.54;96509.44;10429183;28;20124;-28
2022/11/24 19:39:47;;;;;;;5.83;2.10;;;;;;;17.46;60.27;96498.47;10423950;28;20035;-29
2022/11/24 19:44:47;;;;;;;3.73;1.43;;;;;;;17.48;59.87;96511.94;10429126;28;20836;-28
2022/11/24 19:49:48;;;;;;;3.78;2.90;;;;;;;17.47;60.09;96524.59;10430293;28;20499;-29
2022/11/24 19:54:48;;;;;;;8.03;1.53;;;;;;;17.44;59.66;96520.41;10428797;28;20029;-25
2022/11/24 19:59:50;;;;;;;3.13;1.40;;;;;;;17.44;59.78;96504.38;10428690;28;20390;-28
2022/11/24 20:04:50;;;;;;;4.65;1.33;;;;;;;17.40;59.63;96493.38;10427066;28;20037;-28
2022/11/24 20:09:51;;;;;;;3.77;1.63;;;;;;;17.45;59.28;96500.97;10431011;28;20497;-28
2022/11/24 20:14:51;;;;;;;4.63;1.50;;;;;;;17.40;59.31;96477.38;10432596;28;20288;-28
2022/11/24 20:19:51;;;;;;;4.10;1.33;;;;;;;17.49;58.85;96495.09;10438173;28;20126;-28
2022/11/24 20:24:52;;;;;;;3.80;1.40;;;;;;;17.55;57.92;96501.00;10441924;28;21092;-28
2022/11/24 20:29:52;;;;;;;3.23;1.43;;;;;;;17.59;59.23;96509.44;10438323;28;20033;-29
2022/11/24 20:34:52;;;;;;;3.10;2.03;;;;;;;17.59;58.25;96499.31;10437820;28;20184;-30
2022/11/24 20:39:53;;;;;;;2.83;1.40;;;;;;;17.56;57.92;96499.31;10439092;28;20500;-28
2022/11/24 20:44:53;;;;;;;4.17;1.33;;;;;;;17.54;58.01;96491.72;10437359;28;20496;-27
2022/11/24 20:49:53;;;;;;;3.30;1.60;;;;;;;17.39;59.01;96480.72;10438538;28;20295;-29
2022/11/24 20:54:54;;;;;;;2.60;1.37;;;;;;;17.44;59.17;96489.19;10443004;28;20288;-28
2022/11/24 20:59:54;;;;;;;2.17;0.90;;;;;;;17.46;58.75;96482.41;10443100;28;20294;-27
2022/11/24 21:04:54;;;;;;;4.57;1.70;;;;;;;17.51;58.59;96484.09;10440721;28;20077;-27
2022/11/24 21:09:55;;;;;;;3.87;1.17;;;;;;;17.51;58.73;96479.03;10440528;28;20029;-28
2022/11/24 21:14:55;;;;;;;3.80;1.58;;;;;;;17.52;58.57;96479.91;10439939;28;20041;-27
2022/11/24 21:19:56;;;;;;;2.80;1.30;;;;;;;17.54;58.45;96480.75;10435913;28;20429;-29
2022/11/24 21:24:56;;;;;;;3.13;1.20;;;;;;;17.49;58.06;96474.84;10439419;28;20515;-29
2022/11/24 21:29:56;;;;;;;4.13;1.97;;;;;;;17.51;57.84;96480.75;10437082;28;20410;-29
2022/11/24 21:34:57;;;;;;;1.57;1.07;;;;;;;17.49;57.39;96465.56;10440988;28;20475;-28
2022/11/24 21:39:57;;;;;;;1.63;1.07;;;;;;;17.60;56.94;96465.56;10435382;28;20241;-29
2022/11/24 21:45:00;;;;;;;2.50;1.30;;;;;;;17.59;56.70;96466.41;10437497;28;20045;-29
2022/11/24 21:50:02;;;;;;;4.32;1.10;;;;;;;17.55;56.85;96457.09;10439035;28;20037;-28
2022/11/24 21:55:03;;;;;;;2.03;1.30;;;;;;;17.41;56.87;96443.63;10436671;28;20025;-30
2022/11/24 22:00:04;;;;;;;3.55;1.98;;;;;;;17.44;56.73;96456.28;10432744;28;20031;-29
2022/11/24 22:05:07;;;;;;;1.90;0.90;;;;;;;17.41;57.00;96453.75;10432534;28;20037;-30
2022/11/24 22:10:08;;;;;;;1.73;0.73;;;;;;;17.37;57.11;96470.63;10433188;28;20032;-29
2022/11/24 22:15:09;;;;;;;3.03;1.02;;;;;;;17.37;56.90;96463.03;10437435;28;20463;-29
2022/11/24 22:20:09;;;;;;;1.77;0.98;;;;;;;17.38;56.32;96459.66;10435849;28;20039;-29
2022/11/24 22:25:10;;;;;;;1.65;0.98;;;;;;;17.38;56.62;96473.97;10433280;28;20048;-29
2022/11/24 22:30:10;;;;;;;2.30;1.20;;;;;;;17.38;56.41;96486.63;10438482;28;20047;-29
2022/11/24 22:35:11;;;;;;;2.85;1.00;;;;;;;17.37;55.54;96497.59;10434512;28;20158;-29
2022/11/24 22:40:11;;;;;;;1.23;0.70;;;;;;;17.32;56.25;96501.81;10431091;28;20059;-30
2022/11/24 22:45:12;;;;;;;2.17;0.98;;;;;;;17.34;56.05;96507.69;10435524;28;20040;-30
2022/11/24 22:50:13;;;;;;;1.45;0.80;;;;;;;17.42;55.60;96506.06;10435293;28;20021;-29
2022/11/24 22:55:13;;;;;;;1.67;0.70;;;;;;;17.46;55.40;96501.00;10434592;28;20029;-29
2022/11/24 23:00:14;;;;;;;1.42;1.15;;;;;;;17.47;55.28;96519.53;10433249;28;20029;-29
2022/11/24 23:05:14;;;;;;;1.90;0.82;;;;;;;17.41;55.68;96514.50;10436877;28;20033;-29
2022/11/24 23:10:15;;;;;;;2.08;0.60;;;;;;;17.34;55.83;96512.75;10431899;28;20041;-29
2022/11/24 23:15:15;;;;;;;1.50;0.60;;;;;;;17.32;55.56;96517.81;10430583;28;20067;-29
2022/11/24 23:20:16;;;;;;;1.10;0.75;;;;;;;17.31;55.35;96512.78;10436044;28;20041;-29
2022/11/24 23:25:16;;;;;;;1.08;0.70;;;;;;;17.25;55.19;96487.44;10431977;28;20043;-29
2022/11/24 23:30:17;;;;;;;1.63;1.00;;;;;;;17.30;55.51;96493.34;10436991;28;20063;-29